sensor_id;sensor_type;location;lat;lon;timestamp;temperature;humidity
28175;SHT30;59417;44.788;10.334;2022-10-20T00:00:54;17.73;78.56
28175;SHT30;59417;44.788;10.334;2022-10-20T00:03:20;17.77;78.58
28175;SHT30;59417;44.788;10.334;2022-10-20T00:05:45;17.80;78.31
28175;SHT30;59417;44.788;10.334;2022-10-20T00:08:11;17.80;78.15
28175;SHT30;59417;44.788;10.334;2022-10-20T00:10:37;17.58;78.86
28175;SHT30;59417;44.788;10.334;2022-10-20T00:13:02;17.63;78.92
28175;SHT30;59417;44.788;10.334;2022-10-20T00:15:28;17.66;78.93
28175;SHT30;59417;44.788;10.334;2022-10-20T00:17:54;17.70;78.66
28175;SHT30;59417;44.788;10.334;2022-10-20T00:20:19;17.73;78.53
28175;SHT30;59417;44.788;10.334;2022-10-20T00:22:45;17.70;78.64
28175;SHT30;59417;44.788;10.334;2022-10-20T00:25:11;17.67;78.69
28175;SHT30;59417;44.788;10.334;2022-10-20T00:27:37;17.71;78.56
28175;SHT30;59417;44.788;10.334;2022-10-20T00:30:03;17.78;78.19
28175;SHT30;59417;44.788;10.334;2022-10-20T00:32:28;17.87;77.71
28175;SHT30;59417;44.788;10.334;2022-10-20T00:34:55;17.98;77.11
28175;SHT30;59417;44.788;10.334;2022-10-20T00:37:20;18.00;76.98
28175;SHT30;59417;44.788;10.334;2022-10-20T00:39:46;18.05;76.74
28175;SHT30;59417;44.788;10.334;2022-10-20T00:42:16;18.02;77.03
28175;SHT30;59417;44.788;10.334;2022-10-20T00:44:55;17.95;76.79
28175;SHT30;59417;44.788;10.334;2022-10-20T00:47:46;17.81;77.48
28175;SHT30;59417;44.788;10.334;2022-10-20T00:52:47;17.88;77.62
28175;SHT30;59417;44.788;10.334;2022-10-20T00:55:17;17.87;77.77
28175;SHT30;59417;44.788;10.334;2022-10-20T00:57:46;17.82;77.88
28175;SHT30;59417;44.788;10.334;2022-10-20T01:00:14;17.75;77.81
28175;SHT30;59417;44.788;10.334;2022-10-20T01:02:39;17.69;77.94
28175;SHT30;59417;44.788;10.334;2022-10-20T01:05:06;17.80;77.71
28175;SHT30;59417;44.788;10.334;2022-10-20T01:07:32;17.82;77.59
28175;SHT30;59417;44.788;10.334;2022-10-20T01:09:58;17.75;77.55
28175;SHT30;59417;44.788;10.334;2022-10-20T01:15:19;17.75;77.31
28175;SHT30;59417;44.788;10.334;2022-10-20T01:18:21;17.91;76.94
28175;SHT30;59417;44.788;10.334;2022-10-20T01:21:03;17.92;76.82
28175;SHT30;59417;44.788;10.334;2022-10-20T01:26:31;17.84;77.15
28175;SHT30;59417;44.788;10.334;2022-10-20T01:34:53;17.73;78.13
28175;SHT30;59417;44.788;10.334;2022-10-20T01:37:32;17.71;77.94
28175;SHT30;59417;44.788;10.334;2022-10-20T01:42:42;17.80;77.48
28175;SHT30;59417;44.788;10.334;2022-10-20T01:45:12;17.74;77.49
28175;SHT30;59417;44.788;10.334;2022-10-20T01:47:39;17.67;77.72
28175;SHT30;59417;44.788;10.334;2022-10-20T01:50:07;17.67;77.90
28175;SHT30;59417;44.788;10.334;2022-10-20T01:52:35;17.71;77.76
28175;SHT30;59417;44.788;10.334;2022-10-20T01:55:01;17.78;77.47
28175;SHT30;59417;44.788;10.334;2022-10-20T02:00:21;17.77;77.58
28175;SHT30;59417;44.788;10.334;2022-10-20T02:11:01;17.57;77.99
28175;SHT30;59417;44.788;10.334;2022-10-20T02:13:28;17.47;78.51
28175;SHT30;59417;44.788;10.334;2022-10-20T02:15:57;17.49;78.41
28175;SHT30;59417;44.788;10.334;2022-10-20T02:18:28;17.57;77.99
28175;SHT30;59417;44.788;10.334;2022-10-20T02:20:57;17.57;78.12
28175;SHT30;59417;44.788;10.334;2022-10-20T02:23:23;17.39;78.93
28175;SHT30;59417;44.788;10.334;2022-10-20T02:25:51;17.26;79.16
28175;SHT30;59417;44.788;10.334;2022-10-20T02:28:18;17.29;78.98
28175;SHT30;59417;44.788;10.334;2022-10-20T02:30:45;17.27;79.16
28175;SHT30;59417;44.788;10.334;2022-10-20T02:33:13;17.29;79.10
28175;SHT30;59417;44.788;10.334;2022-10-20T02:35:41;17.29;79.00
28175;SHT30;59417;44.788;10.334;2022-10-20T02:38:12;17.24;79.07
28175;SHT30;59417;44.788;10.334;2022-10-20T02:40:38;17.30;78.68
28175;SHT30;59417;44.788;10.334;2022-10-20T02:43:04;17.34;78.43
28175;SHT30;59417;44.788;10.334;2022-10-20T02:45:29;17.36;78.49
28175;SHT30;59417;44.788;10.334;2022-10-20T02:47:55;17.20;79.10
28175;SHT30;59417;44.788;10.334;2022-10-20T02:50:20;16.94;80.35
28175;SHT30;59417;44.788;10.334;2022-10-20T02:52:46;16.88;80.50
28175;SHT30;59417;44.788;10.334;2022-10-20T02:55:12;16.94;80.05
28175;SHT30;59417;44.788;10.334;2022-10-20T02:57:37;17.12;79.35
28175;SHT30;59417;44.788;10.334;2022-10-20T03:00:05;17.24;78.81
28175;SHT30;59417;44.788;10.334;2022-10-20T03:02:30;17.17;79.23
28175;SHT30;59417;44.788;10.334;2022-10-20T03:04:56;17.16;79.24
28175;SHT30;59417;44.788;10.334;2022-10-20T03:07:22;17.17;79.08
28175;SHT30;59417;44.788;10.334;2022-10-20T03:09:48;17.17;79.02
28175;SHT30;59417;44.788;10.334;2022-10-20T03:12:14;17.15;79.25
28175;SHT30;59417;44.788;10.334;2022-10-20T03:14:45;17.23;78.77
28175;SHT30;59417;44.788;10.334;2022-10-20T03:17:11;17.29;78.65
28175;SHT30;59417;44.788;10.334;2022-10-20T03:19:37;17.26;78.66
28175;SHT30;59417;44.788;10.334;2022-10-20T03:22:04;17.17;79.04
28175;SHT30;59417;44.788;10.334;2022-10-20T03:24:29;17.19;78.91
28175;SHT30;59417;44.788;10.334;2022-10-20T03:26:55;17.27;78.48
28175;SHT30;59417;44.788;10.334;2022-10-20T03:29:20;17.23;78.68
28175;SHT30;59417;44.788;10.334;2022-10-20T03:31:46;17.12;78.85
28175;SHT30;59417;44.788;10.334;2022-10-20T03:34:12;17.06;79.13
28175;SHT30;59417;44.788;10.334;2022-10-20T03:36:38;17.08;79.15
28175;SHT30;59417;44.788;10.334;2022-10-20T03:39:03;17.12;78.86
28175;SHT30;59417;44.788;10.334;2022-10-20T03:41:29;17.05;78.99
28175;SHT30;59417;44.788;10.334;2022-10-20T03:43:54;16.91;79.26
28175;SHT30;59417;44.788;10.334;2022-10-20T03:46:20;16.89;79.39
28175;SHT30;59417;44.788;10.334;2022-10-20T03:48:46;16.82;79.73
28175;SHT30;59417;44.788;10.334;2022-10-20T03:51:12;16.78;79.92
28175;SHT30;59417;44.788;10.334;2022-10-20T03:53:38;16.88;79.50
28175;SHT30;59417;44.788;10.334;2022-10-20T03:56:06;16.94;79.04
28175;SHT30;59417;44.788;10.334;2022-10-20T03:58:31;17.05;78.69
28175;SHT30;59417;44.788;10.334;2022-10-20T04:00:57;17.10;78.33
28175;SHT30;59417;44.788;10.334;2022-10-20T04:03:23;17.03;78.45
28175;SHT30;59417;44.788;10.334;2022-10-20T04:05:48;16.96;78.60
28175;SHT30;59417;44.788;10.334;2022-10-20T04:08:14;16.92;78.72
28175;SHT30;59417;44.788;10.334;2022-10-20T04:10:40;16.91;78.79
28175;SHT30;59417;44.788;10.334;2022-10-20T04:13:05;16.92;78.71
28175;SHT30;59417;44.788;10.334;2022-10-20T04:15:31;16.95;78.30
28175;SHT30;59417;44.788;10.334;2022-10-20T04:17:57;16.99;78.05
28175;SHT30;59417;44.788;10.334;2022-10-20T04:20:22;16.85;78.57
28175;SHT30;59417;44.788;10.334;2022-10-20T04:22:48;16.98;78.11
28175;SHT30;59417;44.788;10.334;2022-10-20T04:25:14;17.03;77.70
28175;SHT30;59417;44.788;10.334;2022-10-20T04:27:40;17.00;77.63
28175;SHT30;59417;44.788;10.334;2022-10-20T04:30:07;16.88;77.89
28175;SHT30;59417;44.788;10.334;2022-10-20T04:32:33;16.79;78.09
28175;SHT30;59417;44.788;10.334;2022-10-20T04:34:58;16.72;78.58
28175;SHT30;59417;44.788;10.334;2022-10-20T04:37:24;16.71;78.59
28175;SHT30;59417;44.788;10.334;2022-10-20T04:39:50;16.76;78.32
28175;SHT30;59417;44.788;10.334;2022-10-20T04:42:19;16.80;77.99
28175;SHT30;59417;44.788;10.334;2022-10-20T04:44:45;16.78;77.91
28175;SHT30;59417;44.788;10.334;2022-10-20T04:47:11;16.72;78.03
28175;SHT30;59417;44.788;10.334;2022-10-20T04:49:37;16.66;78.20
28175;SHT30;59417;44.788;10.334;2022-10-20T04:52:04;16.58;78.51
28175;SHT30;59417;44.788;10.334;2022-10-20T04:54:30;16.64;78.47
28175;SHT30;59417;44.788;10.334;2022-10-20T04:56:56;16.61;78.34
28175;SHT30;59417;44.788;10.334;2022-10-20T04:59:21;16.61;78.33
28175;SHT30;59417;44.788;10.334;2022-10-20T05:01:47;16.55;78.53
28175;SHT30;59417;44.788;10.334;2022-10-20T05:04:13;16.51;78.52
28175;SHT30;59417;44.788;10.334;2022-10-20T05:06:45;16.41;78.73
28175;SHT30;59417;44.788;10.334;2022-10-20T05:09:11;16.35;79.05
28175;SHT30;59417;44.788;10.334;2022-10-20T05:11:37;16.34;79.12
28175;SHT30;59417;44.788;10.334;2022-10-20T05:14:03;16.35;79.08
28175;SHT30;59417;44.788;10.334;2022-10-20T05:16:35;16.30;79.20
28175;SHT30;59417;44.788;10.334;2022-10-20T05:19:06;16.40;79.14
28175;SHT30;59417;44.788;10.334;2022-10-20T05:22:19;16.49;78.61
28175;SHT30;59417;44.788;10.334;2022-10-20T05:24:45;16.55;78.35
28175;SHT30;59417;44.788;10.334;2022-10-20T05:27:10;16.61;78.04
28175;SHT30;59417;44.788;10.334;2022-10-20T05:29:43;16.52;78.34
28175;SHT30;59417;44.788;10.334;2022-10-20T05:32:27;16.48;78.68
28175;SHT30;59417;44.788;10.334;2022-10-20T05:34:52;16.47;78.61
28175;SHT30;59417;44.788;10.334;2022-10-20T05:37:18;16.57;78.09
28175;SHT30;59417;44.788;10.334;2022-10-20T05:39:44;16.52;78.00
28175;SHT30;59417;44.788;10.334;2022-10-20T05:42:09;16.44;78.02
28175;SHT30;59417;44.788;10.334;2022-10-20T05:44:35;16.38;78.17
28175;SHT30;59417;44.788;10.334;2022-10-20T05:47:01;16.28;78.52
28175;SHT30;59417;44.788;10.334;2022-10-20T05:49:26;16.28;78.58
28175;SHT30;59417;44.788;10.334;2022-10-20T05:51:52;16.31;78.52
28175;SHT30;59417;44.788;10.334;2022-10-20T05:54:18;16.30;79.04
28175;SHT30;59417;44.788;10.334;2022-10-20T05:56:43;16.33;79.24
28175;SHT30;59417;44.788;10.334;2022-10-20T05:59:10;16.37;79.06
28175;SHT30;59417;44.788;10.334;2022-10-20T06:01:36;16.44;78.91
28175;SHT30;59417;44.788;10.334;2022-10-20T06:04:21;16.44;78.68
28175;SHT30;59417;44.788;10.334;2022-10-20T06:06:48;16.42;78.87
28175;SHT30;59417;44.788;10.334;2022-10-20T06:09:14;16.47;78.67
28175;SHT30;59417;44.788;10.334;2022-10-20T06:11:40;16.61;78.24
28175;SHT30;59417;44.788;10.334;2022-10-20T06:14:08;16.78;77.54
28175;SHT30;59417;44.788;10.334;2022-10-20T06:16:35;16.84;77.52
28175;SHT30;59417;44.788;10.334;2022-10-20T06:19:01;16.88;77.42
28175;SHT30;59417;44.788;10.334;2022-10-20T06:21:29;16.91;77.36
28175;SHT30;59417;44.788;10.334;2022-10-20T06:23:59;16.85;77.59
28175;SHT30;59417;44.788;10.334;2022-10-20T06:26:27;16.80;77.84
28175;SHT30;59417;44.788;10.334;2022-10-20T06:29:01;16.76;78.08
28175;SHT30;59417;44.788;10.334;2022-10-20T06:31:29;16.75;77.90
28175;SHT30;59417;44.788;10.334;2022-10-20T06:33:56;16.78;77.81
28175;SHT30;59417;44.788;10.334;2022-10-20T06:36:37;16.88;77.82
28175;SHT30;59417;44.788;10.334;2022-10-20T06:40:08;16.95;77.68
28175;SHT30;59417;44.788;10.334;2022-10-20T06:42:34;17.02;77.75
28175;SHT30;59417;44.788;10.334;2022-10-20T06:44:59;17.08;76.66
28175;SHT30;59417;44.788;10.334;2022-10-20T06:47:25;17.03;76.37
28175;SHT30;59417;44.788;10.334;2022-10-20T06:49:56;17.05;76.88
28175;SHT30;59417;44.788;10.334;2022-10-20T06:52:23;16.92;77.81
28175;SHT30;59417;44.788;10.334;2022-10-20T06:54:57;16.91;77.71
28175;SHT30;59417;44.788;10.334;2022-10-20T06:57:30;16.96;77.07
28175;SHT30;59417;44.788;10.334;2022-10-20T06:59:58;17.10;76.98
28175;SHT30;59417;44.788;10.334;2022-10-20T07:02:26;17.05;77.22
28175;SHT30;59417;44.788;10.334;2022-10-20T07:04:52;17.00;77.39
28175;SHT30;59417;44.788;10.334;2022-10-20T07:07:21;16.99;77.40
28175;SHT30;59417;44.788;10.334;2022-10-20T07:09:46;16.91;77.92
28175;SHT30;59417;44.788;10.334;2022-10-20T07:12:13;16.88;77.12
28175;SHT30;59417;44.788;10.334;2022-10-20T07:14:57;16.95;77.21
28175;SHT30;59417;44.788;10.334;2022-10-20T07:17:23;16.80;77.62
28175;SHT30;59417;44.788;10.334;2022-10-20T07:19:54;16.78;78.53
28175;SHT30;59417;44.788;10.334;2022-10-20T07:22:20;16.89;77.70
28175;SHT30;59417;44.788;10.334;2022-10-20T07:24:46;16.79;78.83
28175;SHT30;59417;44.788;10.334;2022-10-20T07:27:12;16.96;77.55
28175;SHT30;59417;44.788;10.334;2022-10-20T07:29:38;17.06;76.81
28175;SHT30;59417;44.788;10.334;2022-10-20T07:32:03;16.98;77.16
28175;SHT30;59417;44.788;10.334;2022-10-20T07:34:29;16.89;77.48
28175;SHT30;59417;44.788;10.334;2022-10-20T07:36:56;16.91;78.05
28175;SHT30;59417;44.788;10.334;2022-10-20T07:39:22;16.92;78.12
28175;SHT30;59417;44.788;10.334;2022-10-20T07:41:48;16.95;78.74
28175;SHT30;59417;44.788;10.334;2022-10-20T07:44:17;17.03;78.44
28175;SHT30;59417;44.788;10.334;2022-10-20T07:46:43;16.98;78.80
28175;SHT30;59417;44.788;10.334;2022-10-20T07:49:12;16.92;79.52
28175;SHT30;59417;44.788;10.334;2022-10-20T07:51:38;16.75;80.33
28175;SHT30;59417;44.788;10.334;2022-10-20T07:54:06;16.73;80.58
28175;SHT30;59417;44.788;10.334;2022-10-20T07:56:38;16.79;80.29
28175;SHT30;59417;44.788;10.334;2022-10-20T07:59:05;16.75;80.65
28175;SHT30;59417;44.788;10.334;2022-10-20T08:01:31;16.86;80.43
28175;SHT30;59417;44.788;10.334;2022-10-20T08:04:20;16.82;80.47
28175;SHT30;59417;44.788;10.334;2022-10-20T08:07:22;16.88;81.08
28175;SHT30;59417;44.788;10.334;2022-10-20T08:09:51;16.95;81.25
28175;SHT30;59417;44.788;10.334;2022-10-20T08:12:16;16.95;80.99
28175;SHT30;59417;44.788;10.334;2022-10-20T08:14:42;16.82;80.55
28175;SHT30;59417;44.788;10.334;2022-10-20T08:17:09;16.94;80.38
28175;SHT30;59417;44.788;10.334;2022-10-20T08:19:35;16.94;80.30
28175;SHT30;59417;44.788;10.334;2022-10-20T08:22:04;17.02;80.33
28175;SHT30;59417;44.788;10.334;2022-10-20T08:24:29;17.15;80.95
28175;SHT30;59417;44.788;10.334;2022-10-20T08:26:55;17.15;80.27
28175;SHT30;59417;44.788;10.334;2022-10-20T08:29:21;17.22;79.87
28175;SHT30;59417;44.788;10.334;2022-10-20T08:31:47;17.34;79.85
28175;SHT30;59417;44.788;10.334;2022-10-20T08:34:12;17.44;79.26
28175;SHT30;59417;44.788;10.334;2022-10-20T08:36:38;17.54;79.34
28175;SHT30;59417;44.788;10.334;2022-10-20T08:39:04;17.44;78.63
28175;SHT30;59417;44.788;10.334;2022-10-20T08:41:35;17.39;79.58
28175;SHT30;59417;44.788;10.334;2022-10-20T08:44:04;17.54;78.93
28175;SHT30;59417;44.788;10.334;2022-10-20T08:46:35;17.61;79.02
28175;SHT30;59417;44.788;10.334;2022-10-20T08:49:02;17.60;78.35
28175;SHT30;59417;44.788;10.334;2022-10-20T08:51:33;17.61;78.39
28175;SHT30;59417;44.788;10.334;2022-10-20T08:54:02;17.67;79.11
28175;SHT30;59417;44.788;10.334;2022-10-20T08:56:29;17.85;77.95
28175;SHT30;59417;44.788;10.334;2022-10-20T08:58:55;17.81;77.60
28175;SHT30;59417;44.788;10.334;2022-10-20T09:01:27;17.85;78.30
28175;SHT30;59417;44.788;10.334;2022-10-20T09:04:24;17.88;77.96
28175;SHT30;59417;44.788;10.334;2022-10-20T09:06:58;18.02;78.91
28175;SHT30;59417;44.788;10.334;2022-10-20T09:09:24;18.01;78.27
28175;SHT30;59417;44.788;10.334;2022-10-20T09:11:55;18.19;77.12
28175;SHT30;59417;44.788;10.334;2022-10-20T09:14:24;18.15;77.53
28175;SHT30;59417;44.788;10.334;2022-10-20T09:16:50;18.13;77.77
28175;SHT30;59417;44.788;10.334;2022-10-20T09:19:18;18.28;77.16
28175;SHT30;59417;44.788;10.334;2022-10-20T09:21:45;18.39;77.11
28175;SHT30;59417;44.788;10.334;2022-10-20T09:24:12;18.49;76.50
28175;SHT30;59417;44.788;10.334;2022-10-20T09:26:44;18.56;76.93
28175;SHT30;59417;44.788;10.334;2022-10-20T09:29:15;18.52;76.69
28175;SHT30;59417;44.788;10.334;2022-10-20T09:31:49;18.66;77.01
28175;SHT30;59417;44.788;10.334;2022-10-20T09:34:26;19.00;75.92
28175;SHT30;59417;44.788;10.334;2022-10-20T09:37:18;19.18;75.61
28175;SHT30;59417;44.788;10.334;2022-10-20T09:39:53;19.23;75.42
28175;SHT30;59417;44.788;10.334;2022-10-20T09:45:17;19.48;74.98
28175;SHT30;59417;44.788;10.334;2022-10-20T09:47:45;19.51;74.82
28175;SHT30;59417;44.788;10.334;2022-10-20T09:50:26;19.70;74.20
28175;SHT30;59417;44.788;10.334;2022-10-20T09:52:53;19.85;73.70
28175;SHT30;59417;44.788;10.334;2022-10-20T09:57:58;20.06;73.41
28175;SHT30;59417;44.788;10.334;2022-10-20T10:05:52;20.06;73.74
28175;SHT30;59417;44.788;10.334;2022-10-20T10:08:19;19.92;72.93
28175;SHT30;59417;44.788;10.334;2022-10-20T10:11:00;19.80;74.15
28175;SHT30;59417;44.788;10.334;2022-10-20T10:13:29;19.63;74.78
28175;SHT30;59417;44.788;10.334;2022-10-20T10:16:09;19.49;75.05
28175;SHT30;59417;44.788;10.334;2022-10-20T10:18:37;19.44;76.20
28175;SHT30;59417;44.788;10.334;2022-10-20T10:21:09;19.48;76.50
28175;SHT30;59417;44.788;10.334;2022-10-20T10:23:49;19.68;76.54
28175;SHT30;59417;44.788;10.334;2022-10-20T10:26:45;19.79;75.84
28175;SHT30;59417;44.788;10.334;2022-10-20T10:29:26;19.85;76.20
28175;SHT30;59417;44.788;10.334;2022-10-20T10:31:59;19.93;75.55
28175;SHT30;59417;44.788;10.334;2022-10-20T10:37:03;20.03;75.84
28175;SHT30;59417;44.788;10.334;2022-10-20T10:39:32;20.19;75.55
28175;SHT30;59417;44.788;10.334;2022-10-20T10:44:50;20.48;74.79
28175;SHT30;59417;44.788;10.334;2022-10-20T10:50:35;20.54;73.78
28175;SHT30;59417;44.788;10.334;2022-10-20T10:58:34;20.43;74.80
28175;SHT30;59417;44.788;10.334;2022-10-20T11:10:17;20.51;74.21
28175;SHT30;59417;44.788;10.334;2022-10-20T11:24:48;20.20;75.25
28175;SHT30;59417;44.788;10.334;2022-10-20T11:27:24;20.31;74.73
28175;SHT30;59417;44.788;10.334;2022-10-20T11:30:13;20.45;74.15
28175;SHT30;59417;44.788;10.334;2022-10-20T11:35:48;20.21;75.54
28175;SHT30;59417;44.788;10.334;2022-10-20T11:38:33;20.29;74.94
28175;SHT30;59417;44.788;10.334;2022-10-20T11:43:41;20.47;75.12
28175;SHT30;59417;44.788;10.334;2022-10-20T11:46:12;20.58;74.78
28175;SHT30;59417;44.788;10.334;2022-10-20T11:48:46;20.64;74.33
28175;SHT30;59417;44.788;10.334;2022-10-20T11:54:08;20.58;73.91
28175;SHT30;59417;44.788;10.334;2022-10-20T12:10:28;20.70;73.71
28175;SHT30;59417;44.788;10.334;2022-10-20T12:15:49;20.87;73.66
28175;SHT30;59417;44.788;10.334;2022-10-20T12:18:24;20.77;73.34
28175;SHT30;59417;44.788;10.334;2022-10-20T12:21:10;20.68;73.99
28175;SHT30;59417;44.788;10.334;2022-10-20T12:26:38;21.14;72.83
28175;SHT30;59417;44.788;10.334;2022-10-20T12:38:02;20.98;73.50
28175;SHT30;59417;44.788;10.334;2022-10-20T12:40:40;21.06;73.47
28175;SHT30;59417;44.788;10.334;2022-10-20T12:43:21;21.18;72.76
28175;SHT30;59417;44.788;10.334;2022-10-20T12:45:56;21.23;71.93
28175;SHT30;59417;44.788;10.334;2022-10-20T12:48:23;21.11;72.45
28175;SHT30;59417;44.788;10.334;2022-10-20T12:50:50;21.23;72.47
28175;SHT30;59417;44.788;10.334;2022-10-20T12:56:08;21.09;73.15
28175;SHT30;59417;44.788;10.334;2022-10-20T12:59:57;21.05;72.69
28175;SHT30;59417;44.788;10.334;2022-10-20T13:04:59;21.02;72.66
28175;SHT30;59417;44.788;10.334;2022-10-20T13:23:14;21.36;72.72
28175;SHT30;59417;44.788;10.334;2022-10-20T13:25:54;21.53;72.42
28175;SHT30;59417;44.788;10.334;2022-10-20T13:28:23;21.60;71.81
28175;SHT30;59417;44.788;10.334;2022-10-20T13:33:54;21.59;71.56
28175;SHT30;59417;44.788;10.334;2022-10-20T13:39:05;21.60;71.44
28175;SHT30;59417;44.788;10.334;2022-10-20T13:50:29;21.41;72.58
28175;SHT30;59417;44.788;10.334;2022-10-20T13:53:03;21.35;73.16
28175;SHT30;59417;44.788;10.334;2022-10-20T13:56:00;21.50;72.83
28175;SHT30;59417;44.788;10.334;2022-10-20T13:58:27;21.42;73.52
28175;SHT30;59417;44.788;10.334;2022-10-20T14:01:04;21.39;73.24
28175;SHT30;59417;44.788;10.334;2022-10-20T14:03:39;21.36;73.03
28175;SHT30;59417;44.788;10.334;2022-10-20T14:06:05;21.49;72.89
28175;SHT30;59417;44.788;10.334;2022-10-20T14:08:41;21.43;73.01
28175;SHT30;59417;44.788;10.334;2022-10-20T14:11:06;21.39;73.08
28175;SHT30;59417;44.788;10.334;2022-10-20T14:13:35;21.39;73.09
28175;SHT30;59417;44.788;10.334;2022-10-20T14:16:04;21.35;73.43
28175;SHT30;59417;44.788;10.334;2022-10-20T14:18:35;21.36;73.52
28175;SHT30;59417;44.788;10.334;2022-10-20T14:21:13;21.33;73.28
28175;SHT30;59417;44.788;10.334;2022-10-20T14:23:44;21.35;73.39
28175;SHT30;59417;44.788;10.334;2022-10-20T14:26:12;21.39;73.40
28175;SHT30;59417;44.788;10.334;2022-10-20T14:28:40;21.28;73.30
28175;SHT30;59417;44.788;10.334;2022-10-20T14:31:09;21.22;73.83
28175;SHT30;59417;44.788;10.334;2022-10-20T14:33:40;21.15;74.00
28175;SHT30;59417;44.788;10.334;2022-10-20T14:36:25;21.14;74.10
28175;SHT30;59417;44.788;10.334;2022-10-20T14:38:58;21.15;74.38
28175;SHT30;59417;44.788;10.334;2022-10-20T14:41:30;21.25;74.15
28175;SHT30;59417;44.788;10.334;2022-10-20T14:44:05;21.36;74.11
28175;SHT30;59417;44.788;10.334;2022-10-20T14:46:44;21.19;74.89
28175;SHT30;59417;44.788;10.334;2022-10-20T14:49:21;21.14;75.08
28175;SHT30;59417;44.788;10.334;2022-10-20T14:52:03;21.04;74.72
28175;SHT30;59417;44.788;10.334;2022-10-20T14:57:00;21.01;74.39
28175;SHT30;59417;44.788;10.334;2022-10-20T14:59:28;21.04;74.49
28175;SHT30;59417;44.788;10.334;2022-10-20T15:02:04;21.06;74.63
28175;SHT30;59417;44.788;10.334;2022-10-20T15:04:43;21.06;74.22
28175;SHT30;59417;44.788;10.334;2022-10-20T15:09:46;20.92;75.40
28175;SHT30;59417;44.788;10.334;2022-10-20T15:12:20;20.95;74.77
28175;SHT30;59417;44.788;10.334;2022-10-20T15:14:52;20.91;74.58
28175;SHT30;59417;44.788;10.334;2022-10-20T15:19:55;20.98;74.81
28175;SHT30;59417;44.788;10.334;2022-10-20T15:22:21;21.04;74.93
28175;SHT30;59417;44.788;10.334;2022-10-20T15:24:46;20.85;75.58
28175;SHT30;59417;44.788;10.334;2022-10-20T15:27:16;20.78;76.14
28175;SHT30;59417;44.788;10.334;2022-10-20T15:30:03;20.72;76.03
28175;SHT30;59417;44.788;10.334;2022-10-20T15:32:28;20.70;76.17
28175;SHT30;59417;44.788;10.334;2022-10-20T15:35:10;20.68;75.83
28175;SHT30;59417;44.788;10.334;2022-10-20T15:37:36;20.71;75.94
28175;SHT30;59417;44.788;10.334;2022-10-20T15:40:02;20.71;76.24
28175;SHT30;59417;44.788;10.334;2022-10-20T15:42:27;20.71;76.33
28175;SHT30;59417;44.788;10.334;2022-10-20T15:44:53;20.82;75.60
28175;SHT30;59417;44.788;10.334;2022-10-20T15:47:18;20.90;74.96
28175;SHT30;59417;44.788;10.334;2022-10-20T15:49:44;20.71;75.52
28175;SHT30;59417;44.788;10.334;2022-10-20T15:52:10;20.57;76.22
28175;SHT30;59417;44.788;10.334;2022-10-20T15:54:35;20.47;76.87
28175;SHT30;59417;44.788;10.334;2022-10-20T15:57:01;20.45;77.11
28175;SHT30;59417;44.788;10.334;2022-10-20T15:59:26;20.44;76.91
28175;SHT30;59417;44.788;10.334;2022-10-20T16:01:52;20.43;77.29
28175;SHT30;59417;44.788;10.334;2022-10-20T16:04:21;20.41;76.93
28175;SHT30;59417;44.788;10.334;2022-10-20T16:06:55;20.33;76.31
28175;SHT30;59417;44.788;10.334;2022-10-20T16:09:24;20.24;76.66
28175;SHT30;59417;44.788;10.334;2022-10-20T16:11:50;20.21;77.02
28175;SHT30;59417;44.788;10.334;2022-10-20T16:14:16;20.21;77.30
28175;SHT30;59417;44.788;10.334;2022-10-20T16:16:42;20.23;77.39
28175;SHT30;59417;44.788;10.334;2022-10-20T16:19:10;20.20;77.55
28175;SHT30;59417;44.788;10.334;2022-10-20T16:21:36;20.16;77.79
28175;SHT30;59417;44.788;10.334;2022-10-20T16:24:03;20.10;78.07
28175;SHT30;59417;44.788;10.334;2022-10-20T16:26:29;20.03;78.30
28175;SHT30;59417;44.788;10.334;2022-10-20T16:28:54;20.03;78.01
28175;SHT30;59417;44.788;10.334;2022-10-20T16:31:20;20.08;77.96
28175;SHT30;59417;44.788;10.334;2022-10-20T16:33:46;20.24;77.12
28175;SHT30;59417;44.788;10.334;2022-10-20T16:36:13;20.13;77.06
28175;SHT30;59417;44.788;10.334;2022-10-20T16:38:40;20.05;77.47
28175;SHT30;59417;44.788;10.334;2022-10-20T16:41:09;20.08;77.19
28175;SHT30;59417;44.788;10.334;2022-10-20T16:43:41;20.03;77.53
28175;SHT30;59417;44.788;10.334;2022-10-20T16:46:08;19.96;77.91
28175;SHT30;59417;44.788;10.334;2022-10-20T16:48:34;19.87;78.34
28175;SHT30;59417;44.788;10.334;2022-10-20T16:51:06;19.85;78.70
28175;SHT30;59417;44.788;10.334;2022-10-20T16:53:35;19.83;78.43
28175;SHT30;59417;44.788;10.334;2022-10-20T16:56:02;19.73;78.89
28175;SHT30;59417;44.788;10.334;2022-10-20T16:58:34;19.72;79.10
28175;SHT30;59417;44.788;10.334;2022-10-20T17:01:05;19.73;79.10
28175;SHT30;59417;44.788;10.334;2022-10-20T17:03:33;19.83;78.40
28175;SHT30;59417;44.788;10.334;2022-10-20T17:06:02;19.75;78.71
28175;SHT30;59417;44.788;10.334;2022-10-20T17:08:28;19.69;79.20
28175;SHT30;59417;44.788;10.334;2022-10-20T17:11:12;19.63;79.44
28175;SHT30;59417;44.788;10.334;2022-10-20T17:13:38;19.62;79.29
28175;SHT30;59417;44.788;10.334;2022-10-20T17:16:10;19.65;79.23
28175;SHT30;59417;44.788;10.334;2022-10-20T17:18:36;19.59;79.67
28175;SHT30;59417;44.788;10.334;2022-10-20T17:21:02;19.59;79.65
28175;SHT30;59417;44.788;10.334;2022-10-20T17:23:31;19.57;79.66
28175;SHT30;59417;44.788;10.334;2022-10-20T17:25:58;19.57;79.40
28175;SHT30;59417;44.788;10.334;2022-10-20T17:28:28;19.65;79.28
28175;SHT30;59417;44.788;10.334;2022-10-20T17:30:55;19.61;79.25
28175;SHT30;59417;44.788;10.334;2022-10-20T17:33:28;19.58;79.54
28175;SHT30;59417;44.788;10.334;2022-10-20T17:35:56;19.54;80.00
28175;SHT30;59417;44.788;10.334;2022-10-20T17:38:23;19.49;80.16
28175;SHT30;59417;44.788;10.334;2022-10-20T17:40:49;19.48;79.93
28175;SHT30;59417;44.788;10.334;2022-10-20T17:43:15;19.42;80.02
28175;SHT30;59417;44.788;10.334;2022-10-20T17:45:41;19.41;80.44
28175;SHT30;59417;44.788;10.334;2022-10-20T17:48:08;19.32;80.79
28175;SHT30;59417;44.788;10.334;2022-10-20T17:50:38;19.38;80.17
28175;SHT30;59417;44.788;10.334;2022-10-20T17:53:03;19.42;79.91
28175;SHT30;59417;44.788;10.334;2022-10-20T17:55:29;19.44;79.71
28175;SHT30;59417;44.788;10.334;2022-10-20T17:57:57;19.44;79.69
28175;SHT30;59417;44.788;10.334;2022-10-20T18:00:22;19.38;80.18
28175;SHT30;59417;44.788;10.334;2022-10-20T18:02:50;19.34;80.47
28175;SHT30;59417;44.788;10.334;2022-10-20T18:05:17;19.38;80.40